sensor_id;sensor_type;location;lat;lon;timestamp;temperature;humidity
4390;DHT22;2209;48.982;8.406;2023-03-21T00:01:37;13.00;99.90
4390;DHT22;2209;48.982;8.406;2023-03-21T00:03:59;13.00;99.90
4390;DHT22;2209;48.982;8.406;2023-03-21T00:06:21;13.00;99.90
4390;DHT22;2209;48.982;8.406;2023-03-21T00:08:43;13.00;99.90
4390;DHT22;2209;48.982;8.406;2023-03-21T00:11:08;13.00;99.90
4390;DHT22;2209;48.982;8.406;2023-03-21T00:13:32;13.00;99.90
4390;DHT22;2209;48.982;8.406;2023-03-21T00:16:03;13.00;99.90
4390;DHT22;2209;48.982;8.406;2023-03-21T00:18:26;12.90;99.90
4390;DHT22;2209;48.982;8.406;2023-03-21T00:20:55;13.00;99.90
4390;DHT22;2209;48.982;8.406;2023-03-21T00:23:22;12.90;99.90
4390;DHT22;2209;48.982;8.406;2023-03-21T00:25:44;12.90;99.90
4390;DHT22;2209;48.982;8.406;2023-03-21T00:28:07;12.90;99.90
4390;DHT22;2209;48.982;8.406;2023-03-21T00:30:29;12.90;99.90
4390;DHT22;2209;48.982;8.406;2023-03-21T00:32:51;12.90;99.90
4390;DHT22;2209;48.982;8.406;2023-03-21T00:35:14;12.90;99.90
4390;DHT22;2209;48.982;8.406;2023-03-21T00:37:36;12.80;99.90
4390;DHT22;2209;48.982;8.406;2023-03-21T00:39:58;12.80;99.90
4390;DHT22;2209;48.982;8.406;2023-03-21T00:42:20;12.80;99.90
4390;DHT22;2209;48.982;8.406;2023-03-21T00:44:44;12.80;99.90
4390;DHT22;2209;48.982;8.406;2023-03-21T00:47:06;12.80;99.90
4390;DHT22;2209;48.982;8.406;2023-03-21T00:49:28;12.80;99.90
4390;DHT22;2209;48.982;8.406;2023-03-21T00:51:53;12.80;99.90
4390;DHT22;2209;48.982;8.406;2023-03-21T00:54:16;12.80;99.90
4390;DHT22;2209;48.982;8.406;2023-03-21T00:56:38;12.80;99.90
4390;DHT22;2209;48.982;8.406;2023-03-21T00:59:00;12.80;99.90
4390;DHT22;2209;48.982;8.406;2023-03-21T01:01:23;12.80;99.90
4390;DHT22;2209;48.982;8.406;2023-03-21T01:03:46;12.80;99.90
4390;DHT22;2209;48.982;8.406;2023-03-21T01:06:11;12.80;99.90
4390;DHT22;2209;48.982;8.406;2023-03-21T01:08:34;12.80;99.90
4390;DHT22;2209;48.982;8.406;2023-03-21T01:11:01;12.80;99.90
4390;DHT22;2209;48.982;8.406;2023-03-21T01:13:24;12.80;99.90
4390;DHT22;2209;48.982;8.406;2023-03-21T01:15:48;12.70;99.90
4390;DHT22;2209;48.982;8.406;2023-03-21T01:18:13;12.70;99.90
4390;DHT22;2209;48.982;8.406;2023-03-21T01:20:35;12.70;99.90
4390;DHT22;2209;48.982;8.406;2023-03-21T01:22:57;12.70;99.90
4390;DHT22;2209;48.982;8.406;2023-03-21T01:25:19;12.60;99.90
4390;DHT22;2209;48.982;8.406;2023-03-21T01:27:41;12.70;99.90
4390;DHT22;2209;48.982;8.406;2023-03-21T01:30:04;12.60;99.90
4390;DHT22;2209;48.982;8.406;2023-03-21T01:32:27;12.60;99.90
4390;DHT22;2209;48.982;8.406;2023-03-21T01:34:50;12.60;99.90
4390;DHT22;2209;48.982;8.406;2023-03-21T01:37:12;12.60;99.90
4390;DHT22;2209;48.982;8.406;2023-03-21T01:39:37;12.60;99.90
4390;DHT22;2209;48.982;8.406;2023-03-21T01:41:59;12.60;99.90
4390;DHT22;2209;48.982;8.406;2023-03-21T01:44:21;12.60;99.90
4390;DHT22;2209;48.982;8.406;2023-03-21T01:46:45;12.60;99.90
4390;DHT22;2209;48.982;8.406;2023-03-21T01:49:15;12.60;99.90
4390;DHT22;2209;48.982;8.406;2023-03-21T01:51:44;12.60;99.90
4390;DHT22;2209;48.982;8.406;2023-03-21T01:54:09;12.60;99.90
4390;DHT22;2209;48.982;8.406;2023-03-21T01:56:36;12.60;99.90
4390;DHT22;2209;48.982;8.406;2023-03-21T01:59:04;12.60;99.90
4390;DHT22;2209;48.982;8.406;2023-03-21T02:01:28;12.60;99.90
4390;DHT22;2209;48.982;8.406;2023-03-21T02:03:51;12.60;99.90
4390;DHT22;2209;48.982;8.406;2023-03-21T02:06:15;12.60;99.90
4390;DHT22;2209;48.982;8.406;2023-03-21T02:08:40;12.50;99.90
4390;DHT22;2209;48.982;8.406;2023-03-21T02:11:03;12.60;99.90
4390;DHT22;2209;48.982;8.406;2023-03-21T02:13:25;12.60;99.90
4390;DHT22;2209;48.982;8.406;2023-03-21T02:15:52;12.50;99.90
4390;DHT22;2209;48.982;8.406;2023-03-21T02:18:23;12.50;99.90
4390;DHT22;2209;48.982;8.406;2023-03-21T02:21:08;12.50;99.90
4390;DHT22;2209;48.982;8.406;2023-03-21T02:26:55;12.50;99.90
4390;DHT22;2209;48.982;8.406;2023-03-21T02:29:38;12.50;99.90
4390;DHT22;2209;48.982;8.406;2023-03-21T02:32:12;12.40;99.90
4390;DHT22;2209;48.982;8.406;2023-03-21T02:34:53;12.40;99.90
4390;DHT22;2209;48.982;8.406;2023-03-21T02:37:23;12.40;99.90
4390;DHT22;2209;48.982;8.406;2023-03-21T02:39:55;12.40;99.90
4390;DHT22;2209;48.982;8.406;2023-03-21T02:42:24;12.30;99.90
4390;DHT22;2209;48.982;8.406;2023-03-21T02:44:54;12.40;99.90
4390;DHT22;2209;48.982;8.406;2023-03-21T02:47:22;12.30;99.90
4390;DHT22;2209;48.982;8.406;2023-03-21T02:49:49;12.30;99.90
4390;DHT22;2209;48.982;8.406;2023-03-21T02:52:15;12.30;99.90
4390;DHT22;2209;48.982;8.406;2023-03-21T02:54:40;12.30;99.90
4390;DHT22;2209;48.982;8.406;2023-03-21T02:57:04;12.40;99.90
4390;DHT22;2209;48.982;8.406;2023-03-21T02:59:27;12.40;99.90
4390;DHT22;2209;48.982;8.406;2023-03-21T03:01:50;12.40;99.90
4390;DHT22;2209;48.982;8.406;2023-03-21T03:04:18;12.30;99.90
4390;DHT22;2209;48.982;8.406;2023-03-21T03:06:45;12.30;99.90
4390;DHT22;2209;48.982;8.406;2023-03-21T03:09:20;12.30;99.90
4390;DHT22;2209;48.982;8.406;2023-03-21T03:11:50;12.30;99.90
4390;DHT22;2209;48.982;8.406;2023-03-21T03:14:30;12.30;99.90
4390;DHT22;2209;48.982;8.406;2023-03-21T03:17:02;12.30;99.90
4390;DHT22;2209;48.982;8.406;2023-03-21T03:19:31;12.30;99.90
4390;DHT22;2209;48.982;8.406;2023-03-21T03:21:58;12.30;99.90
4390;DHT22;2209;48.982;8.406;2023-03-21T03:24:25;12.30;99.90
4390;DHT22;2209;48.982;8.406;2023-03-21T03:26:54;12.30;99.90
4390;DHT22;2209;48.982;8.406;2023-03-21T03:29:17;12.20;99.90
4390;DHT22;2209;48.982;8.406;2023-03-21T03:31:44;12.20;99.90
4390;DHT22;2209;48.982;8.406;2023-03-21T03:34:10;12.20;99.90
4390;DHT22;2209;48.982;8.406;2023-03-21T03:36:36;12.20;99.90
4390;DHT22;2209;48.982;8.406;2023-03-21T03:39:00;12.20;99.90
4390;DHT22;2209;48.982;8.406;2023-03-21T03:41:26;12.20;99.90
4390;DHT22;2209;48.982;8.406;2023-03-21T03:43:52;12.10;99.90
4390;DHT22;2209;48.982;8.406;2023-03-21T03:46:18;12.10;99.90
4390;DHT22;2209;48.982;8.406;2023-03-21T03:48:45;12.10;99.90
4390;DHT22;2209;48.982;8.406;2023-03-21T03:51:10;12.10;99.90
4390;DHT22;2209;48.982;8.406;2023-03-21T03:53:36;12.00;99.90
4390;DHT22;2209;48.982;8.406;2023-03-21T03:56:01;12.00;99.90
4390;DHT22;2209;48.982;8.406;2023-03-21T03:58:25;12.00;99.90
4390;DHT22;2209;48.982;8.406;2023-03-21T04:00:50;12.00;99.90
4390;DHT22;2209;48.982;8.406;2023-03-21T04:03:12;12.00;99.90
4390;DHT22;2209;48.982;8.406;2023-03-21T04:05:34;12.00;99.90
4390;DHT22;2209;48.982;8.406;2023-03-21T04:07:57;12.00;99.90
4390;DHT22;2209;48.982;8.406;2023-03-21T04:10:19;12.00;99.90
4390;DHT22;2209;48.982;8.406;2023-03-21T04:12:42;11.90;99.90
4390;DHT22;2209;48.982;8.406;2023-03-21T04:15:05;11.90;99.90
4390;DHT22;2209;48.982;8.406;2023-03-21T04:17:29;11.90;99.90
4390;DHT22;2209;48.982;8.406;2023-03-21T04:19:52;11.90;99.90
4390;DHT22;2209;48.982;8.406;2023-03-21T04:22:14;11.90;99.90
4390;DHT22;2209;48.982;8.406;2023-03-21T04:24:37;11.90;99.90
4390;DHT22;2209;48.982;8.406;2023-03-21T04:26:59;12.00;99.90
4390;DHT22;2209;48.982;8.406;2023-03-21T04:29:21;12.00;99.90
4390;DHT22;2209;48.982;8.406;2023-03-21T04:31:43;12.00;99.90
4390;DHT22;2209;48.982;8.406;2023-03-21T04:34:07;11.90;99.90
4390;DHT22;2209;48.982;8.406;2023-03-21T04:36:32;12.00;99.90
4390;DHT22;2209;48.982;8.406;2023-03-21T04:39:02;11.90;99.90
4390;DHT22;2209;48.982;8.406;2023-03-21T04:41:24;11.90;99.90
4390;DHT22;2209;48.982;8.406;2023-03-21T04:43:46;11.90;99.90
4390;DHT22;2209;48.982;8.406;2023-03-21T04:46:08;11.90;99.90
4390;DHT22;2209;48.982;8.406;2023-03-21T04:48:30;11.90;99.90
4390;DHT22;2209;48.982;8.406;2023-03-21T04:50:54;11.90;99.90
4390;DHT22;2209;48.982;8.406;2023-03-21T04:53:16;11.80;99.90
4390;DHT22;2209;48.982;8.406;2023-03-21T04:55:38;11.80;99.90
4390;DHT22;2209;48.982;8.406;2023-03-21T04:58:01;11.90;99.90
4390;DHT22;2209;48.982;8.406;2023-03-21T05:00:23;11.80;99.90
4390;DHT22;2209;48.982;8.406;2023-03-21T05:02:46;11.80;99.90
4390;DHT22;2209;48.982;8.406;2023-03-21T05:05:11;11.80;99.90
4390;DHT22;2209;48.982;8.406;2023-03-21T05:07:35;11.80;99.90
4390;DHT22;2209;48.982;8.406;2023-03-21T05:09:57;11.70;99.90
4390;DHT22;2209;48.982;8.406;2023-03-21T05:12:19;11.70;99.90
4390;DHT22;2209;48.982;8.406;2023-03-21T05:14:44;11.70;99.90
4390;DHT22;2209;48.982;8.406;2023-03-21T05:17:06;11.70;99.90
4390;DHT22;2209;48.982;8.406;2023-03-21T05:19:31;11.70;99.90
4390;DHT22;2209;48.982;8.406;2023-03-21T05:21:58;11.70;99.90
4390;DHT22;2209;48.982;8.406;2023-03-21T05:24:28;11.70;99.90
4390;DHT22;2209;48.982;8.406;2023-03-21T05:26:51;11.70;99.90
4390;DHT22;2209;48.982;8.406;2023-03-21T05:29:16;11.60;99.90
4390;DHT22;2209;48.982;8.406;2023-03-21T05:31:38;11.60;99.90
4390;DHT22;2209;48.982;8.406;2023-03-21T05:34:01;11.60;99.90
4390;DHT22;2209;48.982;8.406;2023-03-21T05:36:23;11.60;99.90
4390;DHT22;2209;48.982;8.406;2023-03-21T05:38:45;11.60;99.90
4390;DHT22;2209;48.982;8.406;2023-03-21T05:41:16;11.60;99.90
4390;DHT22;2209;48.982;8.406;2023-03-21T05:43:38;11.60;99.90
4390;DHT22;2209;48.982;8.406;2023-03-21T05:46:00;11.60;99.90
4390;DHT22;2209;48.982;8.406;2023-03-21T05:48:24;11.50;99.90
4390;DHT22;2209;48.982;8.406;2023-03-21T05:50:46;11.50;99.90
4390;DHT22;2209;48.982;8.406;2023-03-21T05:53:08;11.50;99.90
4390;DHT22;2209;48.982;8.406;2023-03-21T05:55:32;11.60;99.90
4390;DHT22;2209;48.982;8.406;2023-03-21T05:58:00;11.50;99.90
4390;DHT22;2209;48.982;8.406;2023-03-21T06:00:23;11.50;99.90
4390;DHT22;2209;48.982;8.406;2023-03-21T06:02:45;11.50;99.90
4390;DHT22;2209;48.982;8.406;2023-03-21T06:05:10;11.50;99.90
4390;DHT22;2209;48.982;8.406;2023-03-21T06:07:33;11.50;99.90
4390;DHT22;2209;48.982;8.406;2023-03-21T06:09:55;11.50;99.90
4390;DHT22;2209;48.982;8.406;2023-03-21T06:12:17;11.50;99.90
4390;DHT22;2209;48.982;8.406;2023-03-21T06:14:40;11.40;99.90
4390;DHT22;2209;48.982;8.406;2023-03-21T06:17:02;11.50;99.90
4390;DHT22;2209;48.982;8.406;2023-03-21T06:19:26;11.50;99.90
4390;DHT22;2209;48.982;8.406;2023-03-21T06:21:48;11.50;99.90
4390;DHT22;2209;48.982;8.406;2023-03-21T06:24:11;11.50;99.90
4390;DHT22;2209;48.982;8.406;2023-03-21T06:26:33;11.50;99.90
4390;DHT22;2209;48.982;8.406;2023-03-21T06:28:56;11.50;99.90
4390;DHT22;2209;48.982;8.406;2023-03-21T06:31:20;11.50;99.90
4390;DHT22;2209;48.982;8.406;2023-03-21T06:33:42;11.50;99.90
4390;DHT22;2209;48.982;8.406;2023-03-21T06:36:05;11.50;99.90
4390;DHT22;2209;48.982;8.406;2023-03-21T06:38:27;11.40;99.90
4390;DHT22;2209;48.982;8.406;2023-03-21T06:40:49;11.40;99.90
4390;DHT22;2209;48.982;8.406;2023-03-21T06:43:11;11.40;99.90
4390;DHT22;2209;48.982;8.406;2023-03-21T06:45:33;11.40;99.90
4390;DHT22;2209;48.982;8.406;2023-03-21T06:47:57;11.40;99.90
4390;DHT22;2209;48.982;8.406;2023-03-21T06:50:19;11.40;99.90
4390;DHT22;2209;48.982;8.406;2023-03-21T06:52:41;11.40;99.90
4390;DHT22;2209;48.982;8.406;2023-03-21T06:55:04;11.40;99.90
4390;DHT22;2209;48.982;8.406;2023-03-21T06:57:26;11.40;99.90
4390;DHT22;2209;48.982;8.406;2023-03-21T06:59:48;11.40;99.90
4390;DHT22;2209;48.982;8.406;2023-03-21T07:02:11;11.40;99.90
4390;DHT22;2209;48.982;8.406;2023-03-21T07:04:34;11.40;99.90
4390;DHT22;2209;48.982;8.406;2023-03-21T07:06:56;11.40;99.90
4390;DHT22;2209;48.982;8.406;2023-03-21T07:09:18;11.40;99.90
4390;DHT22;2209;48.982;8.406;2023-03-21T07:11:44;11.40;99.90
4390;DHT22;2209;48.982;8.406;2023-03-21T07:14:06;11.40;99.90
4390;DHT22;2209;48.982;8.406;2023-03-21T07:16:28;11.40;99.90
4390;DHT22;2209;48.982;8.406;2023-03-21T07:18:50;11.40;99.90
4390;DHT22;2209;48.982;8.406;2023-03-21T07:21:14;11.40;99.90
4390;DHT22;2209;48.982;8.406;2023-03-21T07:23:36;11.40;99.90
4390;DHT22;2209;48.982;8.406;2023-03-21T07:25:59;11.50;99.90
4390;DHT22;2209;48.982;8.406;2023-03-21T07:28:22;11.50;99.90
4390;DHT22;2209;48.982;8.406;2023-03-21T07:30:44;11.50;99.90
4390;DHT22;2209;48.982;8.406;2023-03-21T07:33:06;11.50;99.90
4390;DHT22;2209;48.982;8.406;2023-03-21T07:35:29;11.50;99.90
4390;DHT22;2209;48.982;8.406;2023-03-21T07:37:52;11.50;99.90
4390;DHT22;2209;48.982;8.406;2023-03-21T07:40:16;11.60;99.90
4390;DHT22;2209;48.982;8.406;2023-03-21T07:42:39;11.60;99.90
4390;DHT22;2209;48.982;8.406;2023-03-21T07:45:01;11.60;99.90
4390;DHT22;2209;48.982;8.406;2023-03-21T07:47:24;11.60;99.90
4390;DHT22;2209;48.982;8.406;2023-03-21T07:49:49;11.60;99.90
4390;DHT22;2209;48.982;8.406;2023-03-21T07:52:11;11.60;99.90
4390;DHT22;2209;48.982;8.406;2023-03-21T07:54:35;11.60;99.90
4390;DHT22;2209;48.982;8.406;2023-03-21T07:56:57;11.70;99.90
4390;DHT22;2209;48.982;8.406;2023-03-21T07:59:19;11.70;99.90
4390;DHT22;2209;48.982;8.406;2023-03-21T08:01:41;11.70;99.90
4390;DHT22;2209;48.982;8.406;2023-03-21T08:04:03;11.70;99.90
4390;DHT22;2209;48.982;8.406;2023-03-21T08:06:28;11.70;99.90
4390;DHT22;2209;48.982;8.406;2023-03-21T08:08:52;11.80;99.90
4390;DHT22;2209;48.982;8.406;2023-03-21T08:11:15;11.80;99.90
4390;DHT22;2209;48.982;8.406;2023-03-21T08:13:38;11.80;99.90
4390;DHT22;2209;48.982;8.406;2023-03-21T08:16:01;11.90;99.90
4390;DHT22;2209;48.982;8.406;2023-03-21T08:18:23;11.90;99.90
4390;DHT22;2209;48.982;8.406;2023-03-21T08:20:49;11.90;99.90
4390;DHT22;2209;48.982;8.406;2023-03-21T08:23:12;11.90;99.90
4390;DHT22;2209;48.982;8.406;2023-03-21T08:25:34;11.90;99.90
4390;DHT22;2209;48.982;8.406;2023-03-21T08:27:58;11.90;99.90
4390;DHT22;2209;48.982;8.406;2023-03-21T08:30:22;12.00;99.90
4390;DHT22;2209;48.982;8.406;2023-03-21T08:32:45;12.00;99.90
4390;DHT22;2209;48.982;8.406;2023-03-21T08:35:09;12.00;99.90
4390;DHT22;2209;48.982;8.406;2023-03-21T08:37:32;12.00;99.90
4390;DHT22;2209;48.982;8.406;2023-03-21T08:39:54;12.00;99.90
4390;DHT22;2209;48.982;8.406;2023-03-21T08:42:17;12.00;99.90
4390;DHT22;2209;48.982;8.406;2023-03-21T08:44:40;12.00;99.90
4390;DHT22;2209;48.982;8.406;2023-03-21T08:47:02;12.10;99.90
4390;DHT22;2209;48.982;8.406;2023-03-21T08:49:24;12.10;99.90
4390;DHT22;2209;48.982;8.406;2023-03-21T08:51:47;12.10;99.90
4390;DHT22;2209;48.982;8.406;2023-03-21T08:54:18;12.10;99.90
4390;DHT22;2209;48.982;8.406;2023-03-21T08:56:41;12.20;99.90
4390;DHT22;2209;48.982;8.406;2023-03-21T08:59:03;12.20;99.90
4390;DHT22;2209;48.982;8.406;2023-03-21T09:01:26;12.20;99.90
4390;DHT22;2209;48.982;8.406;2023-03-21T09:03:49;12.20;99.90
4390;DHT22;2209;48.982;8.406;2023-03-21T09:06:11;12.20;99.90
4390;DHT22;2209;48.982;8.406;2023-03-21T09:08:34;12.20;99.90
4390;DHT22;2209;48.982;8.406;2023-03-21T09:10:56;12.20;99.90
4390;DHT22;2209;48.982;8.406;2023-03-21T09:13:18;12.20;99.90
4390;DHT22;2209;48.982;8.406;2023-03-21T09:15:40;12.20;99.90
4390;DHT22;2209;48.982;8.406;2023-03-21T09:18:04;12.20;99.90
4390;DHT22;2209;48.982;8.406;2023-03-21T09:20:35;12.30;99.90
4390;DHT22;2209;48.982;8.406;2023-03-21T09:22:58;12.30;99.90
4390;DHT22;2209;48.982;8.406;2023-03-21T09:25:21;12.30;99.90
4390;DHT22;2209;48.982;8.406;2023-03-21T09:27:44;12.30;99.90
4390;DHT22;2209;48.982;8.406;2023-03-21T09:30:07;12.40;99.90
4390;DHT22;2209;48.982;8.406;2023-03-21T09:32:31;12.40;99.90
4390;DHT22;2209;48.982;8.406;2023-03-21T09:34:55;12.40;99.90
4390;DHT22;2209;48.982;8.406;2023-03-21T09:37:17;12.40;99.90
4390;DHT22;2209;48.982;8.406;2023-03-21T09:39:41;12.40;99.90
4390;DHT22;2209;48.982;8.406;2023-03-21T09:42:12;12.40;99.90
4390;DHT22;2209;48.982;8.406;2023-03-21T09:44:50;12.40;99.90
4390;DHT22;2209;48.982;8.406;2023-03-21T09:47:17;12.40;99.90
4390;DHT22;2209;48.982;8.406;2023-03-21T09:49:43;12.50;99.90
4390;DHT22;2209;48.982;8.406;2023-03-21T09:52:14;12.40;99.90
4390;DHT22;2209;48.982;8.406;2023-03-21T09:54:41;12.50;99.90
4390;DHT22;2209;48.982;8.406;2023-03-21T09:57:14;12.50;99.90
4390;DHT22;2209;48.982;8.406;2023-03-21T09:59:41;12.50;99.90
4390;DHT22;2209;48.982;8.406;2023-03-21T10:02:19;12.50;99.90
4390;DHT22;2209;48.982;8.406;2023-03-21T10:04:42;12.50;99.90
4390;DHT22;2209;48.982;8.406;2023-03-21T10:07:09;12.50;99.90
4390;DHT22;2209;48.982;8.406;2023-03-21T10:09:35;12.50;99.90
4390;DHT22;2209;48.982;8.406;2023-03-21T10:12:04;12.50;99.90
4390;DHT22;2209;48.982;8.406;2023-03-21T10:14:30;12.50;99.90
4390;DHT22;2209;48.982;8.406;2023-03-21T10:16:56;12.50;99.90
4390;DHT22;2209;48.982;8.406;2023-03-21T10:19:20;12.50;99.90
4390;DHT22;2209;48.982;8.406;2023-03-21T10:21:45;12.50;99.90
4390;DHT22;2209;48.982;8.406;2023-03-21T10:24:11;12.50;99.90
4390;DHT22;2209;48.982;8.406;2023-03-21T10:26:33;12.50;99.90
4390;DHT22;2209;48.982;8.406;2023-03-21T10:28:58;12.50;99.90
4390;DHT22;2209;48.982;8.406;2023-03-21T10:31:24;12.50;99.90
4390;DHT22;2209;48.982;8.406;2023-03-21T10:33:48;12.60;99.90
4390;DHT22;2209;48.982;8.406;2023-03-21T10:36:13;12.60;99.90
4390;DHT22;2209;48.982;8.406;2023-03-21T10:38:39;12.60;99.90
4390;DHT22;2209;48.982;8.406;2023-03-21T10:41:05;12.60;99.90
4390;DHT22;2209;48.982;8.406;2023-03-21T10:43:34;12.60;99.90
4390;DHT22;2209;48.982;8.406;2023-03-21T10:45:57;12.60;99.90
4390;DHT22;2209;48.982;8.406;2023-03-21T10:48:20;12.70;99.90
4390;DHT22;2209;48.982;8.406;2023-03-21T10:50:43;12.70;99.90
4390;DHT22;2209;48.982;8.406;2023-03-21T10:53:15;12.70;99.90
4390;DHT22;2209;48.982;8.406;2023-03-21T10:55:39;12.70;99.90
4390;DHT22;2209;48.982;8.406;2023-03-21T10:58:07;12.70;99.90
4390;DHT22;2209;48.982;8.406;2023-03-21T11:00:35;12.70;99.90
4390;DHT22;2209;48.982;8.406;2023-03-21T11:02:58;12.70;99.90
4390;DHT22;2209;48.982;8.406;2023-03-21T11:05:25;12.70;99.90
4390;DHT22;2209;48.982;8.406;2023-03-21T11:07:56;12.80;99.90
4390;DHT22;2209;48.982;8.406;2023-03-21T11:10:27;12.80;99.90
4390;DHT22;2209;48.982;8.406;2023-03-21T11:12:49;12.80;99.90
4390;DHT22;2209;48.982;8.406;2023-03-21T11:15:27;12.80;99.90
4390;DHT22;2209;48.982;8.406;2023-03-21T11:17:50;12.80;99.90
4390;DHT22;2209;48.982;8.406;2023-03-21T11:20:17;12.80;99.90
4390;DHT22;2209;48.982;8.406;2023-03-21T11:22:41;12.80;99.90
4390;DHT22;2209;48.982;8.406;2023-03-21T11:25:06;12.80;99.90
4390;DHT22;2209;48.982;8.406;2023-03-21T11:27:32;12.90;99.90
4390;DHT22;2209;48.982;8.406;2023-03-21T11:29:55;12.90;99.90
4390;DHT22;2209;48.982;8.406;2023-03-21T11:32:24;12.90;99.90
4390;DHT22;2209;48.982;8.406;2023-03-21T11:34:48;12.90;99.90
4390;DHT22;2209;48.982;8.406;2023-03-21T11:37:19;12.90;99.90
4390;DHT22;2209;48.982;8.406;2023-03-21T11:39:43;13.00;99.90
4390;DHT22;2209;48.982;8.406;2023-03-21T11:42:24;13.00;99.90
4390;DHT22;2209;48.982;8.406;2023-03-21T11:44:49;13.00;99.90
4390;DHT22;2209;48.982;8.406;2023-03-21T11:47:16;13.00;99.90
4390;DHT22;2209;48.982;8.406;2023-03-21T11:49:40;13.00;99.90
4390;DHT22;2209;48.982;8.406;2023-03-21T11:52:10;13.10;99.90
4390;DHT22;2209;48.982;8.406;2023-03-21T11:54:44;13.10;99.90
4390;DHT22;2209;48.982;8.406;2023-03-21T11:57:15;13.10;99.90
4390;DHT22;2209;48.982;8.406;2023-03-21T11:59:43;13.20;99.90
4390;DHT22;2209;48.982;8.406;2023-03-21T12:02:36;13.20;99.90
4390;DHT22;2209;48.982;8.406;2023-03-21T12:05:08;13.40;99.90
4390;DHT22;2209;48.982;8.406;2023-03-21T12:07:47;13.40;99.90
4390;DHT22;2209;48.982;8.406;2023-03-21T12:10:27;13.40;99.90
4390;DHT22;2209;48.982;8.406;2023-03-21T12:12:55;13.40;99.90
4390;DHT22;2209;48.982;8.406;2023-03-21T12:15:23;13.50;99.90
4390;DHT22;2209;48.982;8.406;2023-03-21T12:17:52;13.50;99.90
4390;DHT22;2209;48.982;8.406;2023-03-21T12:20:29;13.50;99.90
4390;DHT22;2209;48.982;8.406;2023-03-21T12:23:07;13.50;99.90
4390;DHT22;2209;48.982;8.406;2023-03-21T12:25:38;13.60;99.90
4390;DHT22;2209;48.982;8.406;2023-03-21T12:28:12;13.60;99.90
4390;DHT22;2209;48.982;8.406;2023-03-21T12:30:46;13.70;99.90
4390;DHT22;2209;48.982;8.406;2023-03-21T12:33:18;13.70;99.90
4390;DHT22;2209;48.982;8.406;2023-03-21T12:35:53;13.80;99.90
4390;DHT22;2209;48.982;8.406;2023-03-21T12:38:20;13.80;99.90
4390;DHT22;2209;48.982;8.406;2023-03-21T12:40:57;13.80;99.90
4390;DHT22;2209;48.982;8.406;2023-03-21T12:43:32;13.90;99.90
4390;DHT22;2209;48.982;8.406;2023-03-21T12:46:00;13.90;99.90
4390;DHT22;2209;48.982;8.406;2023-03-21T12:48:29;13.90;99.90
4390;DHT22;2209;48.982;8.406;2023-03-21T12:50:55;13.90;99.90
4390;DHT22;2209;48.982;8.406;2023-03-21T12:53:28;14.00;99.90
4390;DHT22;2209;48.982;8.406;2023-03-21T12:55:57;14.00;99.90
4390;DHT22;2209;48.982;8.406;2023-03-21T12:58:23;14.00;99.90
4390;DHT22;2209;48.982;8.406;2023-03-21T13:00:51;14.10;99.90
4390;DHT22;2209;48.982;8.406;2023-03-21T13:03:18;14.10;99.90
4390;DHT22;2209;48.982;8.406;2023-03-21T13:05:46;14.20;99.90
4390;DHT22;2209;48.982;8.406;2023-03-21T13:08:14;14.30;99.90
4390;DHT22;2209;48.982;8.406;2023-03-21T13:10:39;14.30;99.90
4390;DHT22;2209;48.982;8.406;2023-03-21T13:13:12;14.30;99.90
4390;DHT22;2209;48.982;8.406;2023-03-21T13:15:59;14.40;99.90
4390;DHT22;2209;48.982;8.406;2023-03-21T13:21:13;14.60;99.90
4390;DHT22;2209;48.982;8.406;2023-03-21T13:23:38;14.60;99.90
4390;DHT22;2209;48.982;8.406;2023-03-21T13:26:00;14.60;99.90
4390;DHT22;2209;48.982;8.406;2023-03-21T13:28:28;14.60;99.90
4390;DHT22;2209;48.982;8.406;2023-03-21T13:30:51;14.70;99.90
4390;DHT22;2209;48.982;8.406;2023-03-21T13:33:16;14.60;99.90
4390;DHT22;2209;48.982;8.406;2023-03-21T13:35:44;14.70;99.90
4390;DHT22;2209;48.982;8.406;2023-03-21T13:38:17;14.70;99.90
4390;DHT22;2209;48.982;8.406;2023-03-21T13:40:44;14.70;99.90
4390;DHT22;2209;48.982;8.406;2023-03-21T13:43:33;14.70;99.90
4390;DHT22;2209;48.982;8.406;2023-03-21T13:46:05;14.70;99.90
4390;DHT22;2209;48.982;8.406;2023-03-21T13:48:29;14.80;99.90
4390;DHT22;2209;48.982;8.406;2023-03-21T13:50:53;14.80;99.90
4390;DHT22;2209;48.982;8.406;2023-03-21T13:53:23;14.80;99.90
4390;DHT22;2209;48.982;8.406;2023-03-21T13:55:57;14.80;99.90
4390;DHT22;2209;48.982;8.406;2023-03-21T13:58:30;14.80;99.90
4390;DHT22;2209;48.982;8.406;2023-03-21T14:03:44;14.90;99.90
4390;DHT22;2209;48.982;8.406;2023-03-21T14:06:07;14.90;99.90
4390;DHT22;2209;48.982;8.406;2023-03-21T14:08:30;14.90;99.90
4390;DHT22;2209;48.982;8.406;2023-03-21T14:10:59;14.90;99.90
4390;DHT22;2209;48.982;8.406;2023-03-21T14:13:25;14.90;99.90
4390;DHT22;2209;48.982;8.406;2023-03-21T14:15:51;14.90;99.90
4390;DHT22;2209;48.982;8.406;2023-03-21T14:18:14;15.00;99.90
4390;DHT22;2209;48.982;8.406;2023-03-21T14:20:37;15.00;99.90
4390;DHT22;2209;48.982;8.406;2023-03-21T14:22:59;15.00;99.90
4390;DHT22;2209;48.982;8.406;2023-03-21T14:25:23;15.00;99.90
4390;DHT22;2209;48.982;8.406;2023-03-21T14:27:49;15.00;99.90
4390;DHT22;2209;48.982;8.406;2023-03-21T14:30:20;15.00;99.90
4390;DHT22;2209;48.982;8.406;2023-03-21T14:32:44;15.00;99.90
4390;DHT22;2209;48.982;8.406;2023-03-21T14:35:10;15.00;99.90
4390;DHT22;2209;48.982;8.406;2023-03-21T14:37:38;15.00;99.60
4390;DHT22;2209;48.982;8.406;2023-03-21T14:40:03;15.00;99.60
4390;DHT22;2209;48.982;8.406;2023-03-21T14:42:33;15.00;99.50
4390;DHT22;2209;48.982;8.406;2023-03-21T14:44:56;15.00;99.60
4390;DHT22;2209;48.982;8.406;2023-03-21T14:47:22;15.00;99.50
4390;DHT22;2209;48.982;8.406;2023-03-21T14:49:44;15.00;99.50
4390;DHT22;2209;48.982;8.406;2023-03-21T14:52:09;15.00;99.60
4390;DHT22;2209;48.982;8.406;2023-03-21T14:54:32;15.00;99.70
4390;DHT22;2209;48.982;8.406;2023-03-21T14:56:58;15.00;99.20
4390;DHT22;2209;48.982;8.406;2023-03-21T14:59:22;15.00;99.20
4390;DHT22;2209;48.982;8.406;2023-03-21T15:01:48;15.00;99.10
4390;DHT22;2209;48.982;8.406;2023-03-21T15:04:11;15.00;98.20
4390;DHT22;2209;48.982;8.406;2023-03-21T15:06:48;15.00;97.00
4390;DHT22;2209;48.982;8.406;2023-03-21T15:09:15;15.00;96.70
4390;DHT22;2209;48.982;8.406;2023-03-21T15:11:38;15.00;96.20
4390;DHT22;2209;48.982;8.406;2023-03-21T15:14:01;15.00;96.20
4390;DHT22;2209;48.982;8.406;2023-03-21T15:16:24;15.00;96.20
4390;DHT22;2209;48.982;8.406;2023-03-21T15:18:48;15.00;96.20
4390;DHT22;2209;48.982;8.406;2023-03-21T15:21:13;15.00;96.00
4390;DHT22;2209;48.982;8.406;2023-03-21T15:23:39;15.00;95.90
4390;DHT22;2209;48.982;8.406;2023-03-21T15:26:03;15.10;96.00
4390;DHT22;2209;48.982;8.406;2023-03-21T15:28:26;15.10;96.00
4390;DHT22;2209;48.982;8.406;2023-03-21T15:30:51;15.10;96.00
4390;DHT22;2209;48.982;8.406;2023-03-21T15:33:14;15.10;95.80
4390;DHT22;2209;48.982;8.406;2023-03-21T15:35:39;15.10;95.80
4390;DHT22;2209;48.982;8.406;2023-03-21T15:38:02;15.10;95.90
4390;DHT22;2209;48.982;8.406;2023-03-21T15:40:26;15.10;95.90
4390;DHT22;2209;48.982;8.406;2023-03-21T15:42:49;15.10;96.00
4390;DHT22;2209;48.982;8.406;2023-03-21T15:45:19;15.10;96.10
4390;DHT22;2209;48.982;8.406;2023-03-21T15:47:52;15.10;96.30
4390;DHT22;2209;48.982;8.406;2023-03-21T15:50:23;15.10;96.50
4390;DHT22;2209;48.982;8.406;2023-03-21T15:52:47;15.10;96.60
4390;DHT22;2209;48.982;8.406;2023-03-21T15:55:17;15.10;96.60
4390;DHT22;2209;48.982;8.406;2023-03-21T15:57:45;15.10;96.60
4390;DHT22;2209;48.982;8.406;2023-03-21T16:00:20;15.10;96.50